AirNav   Air Wisconsin pilot careers
 
 334 users online  

2E6 Groton Municipal Airport
Groton, South Dakota, USA

GOING TO GROTON?


FAA INFORMATION EFFECTIVE 07 DECEMBER 2017

Location

FAA Identifier: 2E6
Lat/Long: 45-32-04.2000N / 098-05-42.9000W
45-32.070000N / 098-05.715000W
45.5345000 / -98.0952500
(estimated)
Elevation: 1306 ft. / 398 m (estimated)
Variation: 07E (1985)
From city: 5 miles N of GROTON, SD
Time zone: UTC -6 (UTC -5 during Daylight Saving Time)
Zip code: 57445

Airport Operations

Airport use: Open to the public
Activation date: 05/1949
Control tower: no
ARTCC: MINNEAPOLIS CENTER
FSS: HURON FLIGHT SERVICE STATION
NOTAMs facility: HON (NOTAM-D service available)
Attendance: UNATNDD
ARPT NOT RECOMMENDED FOR WINTER USE. ARPT CLSD DEC-APR EXCP PPR 605-397-8422.
Wind indicator: yes
Segmented circle: no

Airport Communications

CTAF: 122.9
WX ASOS at ABR (15 nm W): 125.875 (605-229-4512)

Nearby radio navigation aids

VOR radial/distance  VOR name  Freq  Var
ABRr052/13.5ABERDEEN VOR/DME113.0007E

 
NDB name  Hdg/Dist  Freq  Var  ID
RENEY041/13.320307EAB .- -...

Airport Services

Airframe service: NONE
Powerplant service: NONE
Bottled oxygen: NONE
Bulk oxygen: NONE

Runway Information

Runway 15/33

Dimensions: 2070 x 140 ft. / 631 x 43 m
Surface: turf, in fair condition
Runway edge markings: RY 15/33 MKD WITH WHITE BLACK TIPPED MARKER CONES.
RUNWAY 15  RUNWAY 33
Latitude: 45-32.233913N45-31.907203N
Longitude: 098-05.784415W098-05.646937W
Elevation: 1304.0 ft.1306.0 ft.
Gradient: 0.2%0.2%
Traffic pattern: leftleft
Runway heading: 157 magnetic, 164 true337 magnetic, 344 true
Runway end identifier lights: nono
Obstructions: 150 ft. tower, 2673 ft. from runway, 17:1 slope to clear17 ft. road, 450 ft. from runway, 26:1 slope to clear

Airport Ownership and Management from official FAA records

Ownership: Publicly-owned
Owner: CITY OF GROTON
PO BOX 587
GROTON, SD 57445
Phone 605-397-8422
Manager: HOPE BLOCK
PO BOX 587
GROTON, SD 57445
Phone 605-397-8422

Airport Operational Statistics

Aircraft operations: 60/year *
100% local general aviation
* for 12-month period ending 14 July 2016

Instrument Procedures

There are no published instrument procedures at 2E6.

Some nearby airports with instrument procedures:

KABR - Aberdeen Regional Airport (15 nm W)
KBTN - Britton Municipal Airport (22 nm NE)
2D5 - Oakes Municipal Airport (38 nm N)
8D7 - Clark County Airport (42 nm SE)
KGWR - Gwinner Airport-Roger Melroe Field (45 nm NE)
 
Loc | Ops | Rwys | IFR | FBO | Links
Com | Nav | Svcs | Stats | Notes


 
Area around 2E6 (Groton Municipal Airport)
 
Road maps at: MapQuest Bing Google
 
Aerial photo
No photo
 
Sectional chart

 
Airport distance calculator
Flying to Groton Municipal Airport? Find the distance to fly.

From to 2E6

Sunrise and sunset
Times for 18-Dec-2017
 Local
(UTC-6)
 Zulu
(UTC)
Morning civil twilight07:3513:35
Sunrise08:0914:09
Sunset16:4922:49
Evening civil twilight17:2323:23

Current date and time
Zulu (UTC)  18-Dec-2017 09:56:37
Local (UTC-6)  18-Dec-2017 03:56:37
 
METAR
KABR 
14nm W 
180853Z AUTO 20008KT 10SM CLR M03/M04 A2976 RMK AO2 SLP092 T10331039 56015
KBTN 
22nm NE 
SuperAWOS
181035Z AUTO 21008KT 10SM M02/M06 A2971
1D7 
28nm SE 
SuperAWOS
180955Z AUTO 21008KT 10SM M01/M04 A2970
TAF
KABR 
14nm W 
180526Z 1806/1906 19007KT P6SM OVC110 FM181600 22013KT P6SM BKN200 FM190000 26007KT P6SM BKN140
NOTAMs
Click for the latest NOTAMs
NOTAMs are issued by the DoD/FAA and will open in a separate window not controlled by AirNav.

 

 
 

Would you like to see your business listed on this page?

 If your business provides an interesting product or service to pilots, flight crews, aircraft, or users of the Groton Municipal Airport, you should consider listing it here.  To start the listing process, click on the button below
 
Add a business
 

Other Pages about Groton Municipal Airport

Update a link
 
Copyright © AirNav, LLC. All rights reserved. Privacy Policy  Contact